sensor_id;sensor_type;location;lat;lon;timestamp;temperature;humidity
37794;DHT22;23632;48.826;15.176;2023-04-25T00:14:31;15.10;72.40
37794;DHT22;23632;48.826;15.176;2023-04-25T00:17:28;15.10;72.50
37794;DHT22;23632;48.826;15.176;2023-04-25T00:20:31;15.10;72.30
37794;DHT22;23632;48.826;15.176;2023-04-25T00:23:38;15.10;72.50
37794;DHT22;23632;48.826;15.176;2023-04-25T00:26:38;15.10;72.50
37794;DHT22;23632;48.826;15.176;2023-04-25T00:29:42;15.10;72.50
37794;DHT22;23632;48.826;15.176;2023-04-25T00:32:57;15.10;72.50
37794;DHT22;23632;48.826;15.176;2023-04-25T00:35:57;15.10;72.50
37794;DHT22;23632;48.826;15.176;2023-04-25T00:38:55;15.10;72.40
37794;DHT22;23632;48.826;15.176;2023-04-25T00:41:54;15.10;72.50
37794;DHT22;23632;48.826;15.176;2023-04-25T00:45:24;15.10;72.50
37794;DHT22;23632;48.826;15.176;2023-04-25T00:48:26;15.10;72.40
37794;DHT22;23632;48.826;15.176;2023-04-25T00:51:43;15.10;72.40
37794;DHT22;23632;48.826;15.176;2023-04-25T00:54:43;15.10;72.30
37794;DHT22;23632;48.826;15.176;2023-04-25T00:57:52;15.10;72.30
37794;DHT22;23632;48.826;15.176;2023-04-25T01:00:45;15.10;72.20
37794;DHT22;23632;48.826;15.176;2023-04-25T01:03:39;15.10;72.20
37794;DHT22;23632;48.826;15.176;2023-04-25T01:06:30;15.10;72.20
37794;DHT22;23632;48.826;15.176;2023-04-25T01:09:30;15.10;72.00
37794;DHT22;23632;48.826;15.176;2023-04-25T01:12:21;15.10;72.10
37794;DHT22;23632;48.826;15.176;2023-04-25T01:15:19;15.00;72.10
37794;DHT22;23632;48.826;15.176;2023-04-25T01:18:08;15.00;71.90
37794;DHT22;23632;48.826;15.176;2023-04-25T01:21:03;15.10;72.20
37794;DHT22;23632;48.826;15.176;2023-04-25T01:24:51;15.00;72.20
37794;DHT22;23632;48.826;15.176;2023-04-25T01:27:38;15.00;72.10
37794;DHT22;23632;48.826;15.176;2023-04-25T01:30:27;15.00;72.10
37794;DHT22;23632;48.826;15.176;2023-04-25T01:33:07;15.00;72.10
37794;DHT22;23632;48.826;15.176;2023-04-25T01:35:52;15.00;72.20
37794;DHT22;23632;48.826;15.176;2023-04-25T01:39:01;15.00;72.20
37794;DHT22;23632;48.826;15.176;2023-04-25T01:41:52;15.00;72.10
37794;DHT22;23632;48.826;15.176;2023-04-25T01:44:31;15.00;72.20
37794;DHT22;23632;48.826;15.176;2023-04-25T01:47:17;15.00;72.30
37794;DHT22;23632;48.826;15.176;2023-04-25T01:50:29;15.00;72.20
37794;DHT22;23632;48.826;15.176;2023-04-25T01:53:13;15.00;72.30
37794;DHT22;23632;48.826;15.176;2023-04-25T02:00:39;15.00;72.10
37794;DHT22;23632;48.826;15.176;2023-04-25T02:20:53;14.90;72.10
37794;DHT22;23632;48.826;15.176;2023-04-25T02:24:16;14.90;72.20
37794;DHT22;23632;48.826;15.176;2023-04-25T02:27:37;14.80;72.20
37794;DHT22;23632;48.826;15.176;2023-04-25T02:30:48;14.80;72.10
37794;DHT22;23632;48.826;15.176;2023-04-25T02:34:22;14.80;72.20
37794;DHT22;23632;48.826;15.176;2023-04-25T02:37:52;14.80;72.10
37794;DHT22;23632;48.826;15.176;2023-04-25T02:42:14;14.80;72.20
37794;DHT22;23632;48.826;15.176;2023-04-25T03:00:02;14.70;72.10
37794;DHT22;23632;48.826;15.176;2023-04-25T03:03:54;14.70;72.10
37794;DHT22;23632;48.826;15.176;2023-04-25T03:07:28;14.70;72.10
37794;DHT22;23632;48.826;15.176;2023-04-25T03:23:13;14.60;72.00
37794;DHT22;23632;48.826;15.176;2023-04-25T03:26:13;14.60;71.90
37794;DHT22;23632;48.826;15.176;2023-04-25T03:30:03;14.60;71.90
37794;DHT22;23632;48.826;15.176;2023-04-25T03:32:56;14.60;71.90
37794;DHT22;23632;48.826;15.176;2023-04-25T03:36:11;14.50;72.00
37794;DHT22;23632;48.826;15.176;2023-04-25T03:39:12;14.50;71.90
37794;DHT22;23632;48.826;15.176;2023-04-25T03:42:06;14.50;71.90
37794;DHT22;23632;48.826;15.176;2023-04-25T03:44:59;14.50;72.00
37794;DHT22;23632;48.826;15.176;2023-04-25T03:47:47;14.50;71.90
37794;DHT22;23632;48.826;15.176;2023-04-25T03:50:17;14.50;71.80
37794;DHT22;23632;48.826;15.176;2023-04-25T03:53:04;14.50;71.90
37794;DHT22;23632;48.826;15.176;2023-04-25T03:56:32;14.50;71.90
37794;DHT22;23632;48.826;15.176;2023-04-25T03:59:13;14.50;71.80
37794;DHT22;23632;48.826;15.176;2023-04-25T13:17:32;15.60;71.70
